sensor_id;sensor_type;location;lat;lon;timestamp;temperature;humidity
33865;DHT22;20159;51.072;13.526;2022-11-14T00:02:24;9.30;87.20
33865;DHT22;20159;51.072;13.526;2022-11-14T00:04:50;9.30;87.20
33865;DHT22;20159;51.072;13.526;2022-11-14T00:07:15;9.40;87.30
33865;DHT22;20159;51.072;13.526;2022-11-14T00:09:41;9.30;87.20
33865;DHT22;20159;51.072;13.526;2022-11-14T00:12:08;9.30;87.20
33865;DHT22;20159;51.072;13.526;2022-11-14T00:14:34;9.30;87.20
33865;DHT22;20159;51.072;13.526;2022-11-14T00:17:00;9.30;87.20
33865;DHT22;20159;51.072;13.526;2022-11-14T00:19:25;9.30;87.20
33865;DHT22;20159;51.072;13.526;2022-11-14T00:21:51;9.30;87.10
33865;DHT22;20159;51.072;13.526;2022-11-14T00:24:18;9.30;87.60
33865;DHT22;20159;51.072;13.526;2022-11-14T00:26:43;9.30;87.10
33865;DHT22;20159;51.072;13.526;2022-11-14T00:29:13;9.30;87.00
33865;DHT22;20159;51.072;13.526;2022-11-14T00:31:39;9.30;87.10
33865;DHT22;20159;51.072;13.526;2022-11-14T00:34:06;9.30;87.00
33865;DHT22;20159;51.072;13.526;2022-11-14T00:36:32;9.30;86.90
33865;DHT22;20159;51.072;13.526;2022-11-14T00:38:58;9.30;86.80
33865;DHT22;20159;51.072;13.526;2022-11-14T00:41:24;9.50;86.80
33865;DHT22;20159;51.072;13.526;2022-11-14T00:43:49;9.30;86.70
33865;DHT22;20159;51.072;13.526;2022-11-14T00:46:15;9.30;86.70
33865;DHT22;20159;51.072;13.526;2022-11-14T00:48:41;9.30;86.70
33865;DHT22;20159;51.072;13.526;2022-11-14T00:51:06;9.30;86.90
33865;DHT22;20159;51.072;13.526;2022-11-14T00:53:32;9.30;87.00
33865;DHT22;20159;51.072;13.526;2022-11-14T00:55:57;9.30;87.00
33865;DHT22;20159;51.072;13.526;2022-11-14T00:58:23;9.30;86.90
33865;DHT22;20159;51.072;13.526;2022-11-14T01:00:49;9.30;87.00
33865;DHT22;20159;51.072;13.526;2022-11-14T01:03:14;9.30;87.00
33865;DHT22;20159;51.072;13.526;2022-11-14T01:05:45;9.30;87.10
33865;DHT22;20159;51.072;13.526;2022-11-14T01:08:12;9.30;87.10
33865;DHT22;20159;51.072;13.526;2022-11-14T01:10:43;9.30;87.10
33865;DHT22;20159;51.072;13.526;2022-11-14T01:13:10;9.30;87.10
33865;DHT22;20159;51.072;13.526;2022-11-14T01:15:43;9.30;87.10
33865;DHT22;20159;51.072;13.526;2022-11-14T01:18:11;9.40;87.30
33865;DHT22;20159;51.072;13.526;2022-11-14T01:20:41;9.40;87.00
33865;DHT22;20159;51.072;13.526;2022-11-14T01:23:08;9.40;87.10
33865;DHT22;20159;51.072;13.526;2022-11-14T01:25:35;9.40;87.00
33865;DHT22;20159;51.072;13.526;2022-11-14T01:28:04;9.40;86.90
33865;DHT22;20159;51.072;13.526;2022-11-14T01:30:29;9.50;86.90
33865;DHT22;20159;51.072;13.526;2022-11-14T01:32:55;9.50;86.90
33865;DHT22;20159;51.072;13.526;2022-11-14T01:35:20;9.50;86.80
33865;DHT22;20159;51.072;13.526;2022-11-14T01:37:46;9.50;86.80
33865;DHT22;20159;51.072;13.526;2022-11-14T01:40:11;9.50;86.80
33865;DHT22;20159;51.072;13.526;2022-11-14T01:42:37;9.50;86.70
33865;DHT22;20159;51.072;13.526;2022-11-14T01:48:24;9.50;87.00
33865;DHT22;20159;51.072;13.526;2022-11-14T01:50:54;9.50;86.80
33865;DHT22;20159;51.072;13.526;2022-11-14T01:53:21;9.60;86.70
33865;DHT22;20159;51.072;13.526;2022-11-14T01:55:47;9.60;86.60
33865;DHT22;20159;51.072;13.526;2022-11-14T01:58:13;9.60;86.60
33865;DHT22;20159;51.072;13.526;2022-11-14T02:00:40;9.60;86.60
33865;DHT22;20159;51.072;13.526;2022-11-14T02:03:06;9.60;86.60
33865;DHT22;20159;51.072;13.526;2022-11-14T02:05:31;9.60;86.60
33865;DHT22;20159;51.072;13.526;2022-11-14T02:07:58;9.60;86.50
33865;DHT22;20159;51.072;13.526;2022-11-14T02:10:23;9.70;86.50
33865;DHT22;20159;51.072;13.526;2022-11-14T02:12:49;9.70;86.40
33865;DHT22;20159;51.072;13.526;2022-11-14T02:15:16;9.70;86.30
33865;DHT22;20159;51.072;13.526;2022-11-14T02:17:43;9.70;86.20
33865;DHT22;20159;51.072;13.526;2022-11-14T02:22:34;9.60;86.00
33865;DHT22;20159;51.072;13.526;2022-11-14T02:25:00;9.60;85.90
33865;DHT22;20159;51.072;13.526;2022-11-14T02:27:26;9.60;86.00
33865;DHT22;20159;51.072;13.526;2022-11-14T02:29:52;9.60;86.00
33865;DHT22;20159;51.072;13.526;2022-11-14T02:32:17;9.60;86.00
33865;DHT22;20159;51.072;13.526;2022-11-14T02:34:43;9.60;86.00
33865;DHT22;20159;51.072;13.526;2022-11-14T02:37:08;9.60;86.00
33865;DHT22;20159;51.072;13.526;2022-11-14T02:39:34;9.50;86.00
33865;DHT22;20159;51.072;13.526;2022-11-14T02:41:59;9.50;86.10
33865;DHT22;20159;51.072;13.526;2022-11-14T02:44:25;9.50;86.10
33865;DHT22;20159;51.072;13.526;2022-11-14T02:46:51;9.50;86.20
33865;DHT22;20159;51.072;13.526;2022-11-14T02:49:16;9.40;86.20
33865;DHT22;20159;51.072;13.526;2022-11-14T02:51:42;9.40;86.30
33865;DHT22;20159;51.072;13.526;2022-11-14T02:54:07;9.40;86.40
33865;DHT22;20159;51.072;13.526;2022-11-14T02:56:33;9.40;86.50
33865;DHT22;20159;51.072;13.526;2022-11-14T02:58:58;9.40;86.50
33865;DHT22;20159;51.072;13.526;2022-11-14T03:01:24;9.40;86.60
33865;DHT22;20159;51.072;13.526;2022-11-14T03:03:50;9.40;86.60
33865;DHT22;20159;51.072;13.526;2022-11-14T03:06:15;9.50;86.70
33865;DHT22;20159;51.072;13.526;2022-11-14T03:08:41;9.50;86.70
33865;DHT22;20159;51.072;13.526;2022-11-14T03:11:08;9.50;86.70
33865;DHT22;20159;51.072;13.526;2022-11-14T03:13:34;9.50;86.70
33865;DHT22;20159;51.072;13.526;2022-11-14T03:16:09;9.50;86.80
33865;DHT22;20159;51.072;13.526;2022-11-14T03:18:35;9.50;86.90
33865;DHT22;20159;51.072;13.526;2022-11-14T03:21:10;9.50;86.70
33865;DHT22;20159;51.072;13.526;2022-11-14T03:23:37;9.60;86.80
33865;DHT22;20159;51.072;13.526;2022-11-14T03:26:05;9.60;86.60
33865;DHT22;20159;51.072;13.526;2022-11-14T03:28:31;9.60;87.10
33865;DHT22;20159;51.072;13.526;2022-11-14T03:30:57;9.60;86.60
33865;DHT22;20159;51.072;13.526;2022-11-14T03:33:22;9.60;86.50
33865;DHT22;20159;51.072;13.526;2022-11-14T03:35:49;9.70;86.50
33865;DHT22;20159;51.072;13.526;2022-11-14T03:38:16;9.70;86.40
33865;DHT22;20159;51.072;13.526;2022-11-14T03:40:42;9.70;86.40
33865;DHT22;20159;51.072;13.526;2022-11-14T03:43:07;9.70;86.30
33865;DHT22;20159;51.072;13.526;2022-11-14T03:45:34;9.70;86.30
33865;DHT22;20159;51.072;13.526;2022-11-14T03:48:00;9.80;86.30
33865;DHT22;20159;51.072;13.526;2022-11-14T03:50:26;9.80;86.30
33865;DHT22;20159;51.072;13.526;2022-11-14T03:52:51;9.80;86.20
33865;DHT22;20159;51.072;13.526;2022-11-14T03:55:17;9.80;86.20
33865;DHT22;20159;51.072;13.526;2022-11-14T03:57:42;9.80;86.10
33865;DHT22;20159;51.072;13.526;2022-11-14T04:00:08;9.90;86.00
33865;DHT22;20159;51.072;13.526;2022-11-14T04:02:34;9.90;85.90
33865;DHT22;20159;51.072;13.526;2022-11-14T04:05:00;9.90;85.90
33865;DHT22;20159;51.072;13.526;2022-11-14T04:07:25;9.90;85.80
33865;DHT22;20159;51.072;13.526;2022-11-14T04:09:51;9.90;86.20
33865;DHT22;20159;51.072;13.526;2022-11-14T04:12:17;9.90;85.70
33865;DHT22;20159;51.072;13.526;2022-11-14T04:14:43;9.90;85.60
33865;DHT22;20159;51.072;13.526;2022-11-14T04:17:09;9.90;85.60
33865;DHT22;20159;51.072;13.526;2022-11-14T04:19:35;9.90;85.50
33865;DHT22;20159;51.072;13.526;2022-11-14T04:22:01;9.90;85.50
33865;DHT22;20159;51.072;13.526;2022-11-14T04:24:27;10.00;85.60
33865;DHT22;20159;51.072;13.526;2022-11-14T04:26:52;10.00;85.50
33865;DHT22;20159;51.072;13.526;2022-11-14T04:29:18;9.90;85.40
33865;DHT22;20159;51.072;13.526;2022-11-14T04:31:44;9.90;85.40
33865;DHT22;20159;51.072;13.526;2022-11-14T04:34:09;9.90;85.30
33865;DHT22;20159;51.072;13.526;2022-11-14T04:36:35;9.90;85.30
33865;DHT22;20159;51.072;13.526;2022-11-14T04:39:00;9.90;85.30
33865;DHT22;20159;51.072;13.526;2022-11-14T04:41:26;9.90;85.30
33865;DHT22;20159;51.072;13.526;2022-11-14T04:43:52;9.90;85.20
33865;DHT22;20159;51.072;13.526;2022-11-14T04:46:17;9.90;85.20
33865;DHT22;20159;51.072;13.526;2022-11-14T04:48:43;9.90;85.20
33865;DHT22;20159;51.072;13.526;2022-11-14T04:51:08;9.90;85.20
33865;DHT22;20159;51.072;13.526;2022-11-14T04:53:34;9.90;85.20
33865;DHT22;20159;51.072;13.526;2022-11-14T04:55:59;9.80;85.20
33865;DHT22;20159;51.072;13.526;2022-11-14T04:58:25;9.80;85.20
33865;DHT22;20159;51.072;13.526;2022-11-14T05:00:51;9.80;85.20
33865;DHT22;20159;51.072;13.526;2022-11-14T05:03:16;9.80;85.20
33865;DHT22;20159;51.072;13.526;2022-11-14T05:05:42;9.80;85.20
33865;DHT22;20159;51.072;13.526;2022-11-14T05:08:07;9.80;85.20
33865;DHT22;20159;51.072;13.526;2022-11-14T05:10:33;9.80;85.20
33865;DHT22;20159;51.072;13.526;2022-11-14T05:12:58;9.80;85.30
33865;DHT22;20159;51.072;13.526;2022-11-14T05:15:24;9.70;85.30
33865;DHT22;20159;51.072;13.526;2022-11-14T05:17:50;9.70;85.30
33865;DHT22;20159;51.072;13.526;2022-11-14T05:20:15;9.70;85.40
33865;DHT22;20159;51.072;13.526;2022-11-14T05:22:41;9.70;85.50
33865;DHT22;20159;51.072;13.526;2022-11-14T05:25:07;9.70;85.50
33865;DHT22;20159;51.072;13.526;2022-11-14T05:27:33;9.70;85.50
33865;DHT22;20159;51.072;13.526;2022-11-14T05:29:59;9.70;85.50
33865;DHT22;20159;51.072;13.526;2022-11-14T05:32:24;9.70;85.50
33865;DHT22;20159;51.072;13.526;2022-11-14T05:34:50;9.70;85.40
33865;DHT22;20159;51.072;13.526;2022-11-14T05:37:15;9.70;85.40
33865;DHT22;20159;51.072;13.526;2022-11-14T05:39:41;9.60;85.30
33865;DHT22;20159;51.072;13.526;2022-11-14T05:42:06;9.60;85.30
33865;DHT22;20159;51.072;13.526;2022-11-14T05:44:32;9.60;85.30
33865;DHT22;20159;51.072;13.526;2022-11-14T05:46:57;9.60;85.40
33865;DHT22;20159;51.072;13.526;2022-11-14T05:49:23;9.60;85.50
33865;DHT22;20159;51.072;13.526;2022-11-14T05:51:48;9.60;85.50
33865;DHT22;20159;51.072;13.526;2022-11-14T05:54:14;9.50;85.50
33865;DHT22;20159;51.072;13.526;2022-11-14T05:56:40;9.50;85.50
33865;DHT22;20159;51.072;13.526;2022-11-14T05:59:05;9.50;85.50
33865;DHT22;20159;51.072;13.526;2022-11-14T06:01:31;9.40;85.60
33865;DHT22;20159;51.072;13.526;2022-11-14T06:03:56;9.40;86.10
33865;DHT22;20159;51.072;13.526;2022-11-14T06:06:22;9.40;85.80
33865;DHT22;20159;51.072;13.526;2022-11-14T06:08:48;9.40;85.90
33865;DHT22;20159;51.072;13.526;2022-11-14T06:11:16;9.30;86.10
33865;DHT22;20159;51.072;13.526;2022-11-14T06:13:42;9.30;86.30
33865;DHT22;20159;51.072;13.526;2022-11-14T06:16:13;9.30;86.50
33865;DHT22;20159;51.072;13.526;2022-11-14T06:18:39;9.30;86.70
33865;DHT22;20159;51.072;13.526;2022-11-14T06:21:19;9.30;86.60
33865;DHT22;20159;51.072;13.526;2022-11-14T06:23:45;9.30;86.90
33865;DHT22;20159;51.072;13.526;2022-11-14T06:26:29;9.30;86.60
33865;DHT22;20159;51.072;13.526;2022-11-14T06:28:56;9.30;86.90
33865;DHT22;20159;51.072;13.526;2022-11-14T06:31:23;9.30;86.60
33865;DHT22;20159;51.072;13.526;2022-11-14T06:33:49;9.30;86.60
33865;DHT22;20159;51.072;13.526;2022-11-14T06:36:15;9.30;86.60
33865;DHT22;20159;51.072;13.526;2022-11-14T06:38:41;9.40;86.80
33865;DHT22;20159;51.072;13.526;2022-11-14T06:41:16;9.40;86.90
33865;DHT22;20159;51.072;13.526;2022-11-14T06:43:44;9.40;87.00
33865;DHT22;20159;51.072;13.526;2022-11-14T06:46:13;9.40;86.90
33865;DHT22;20159;51.072;13.526;2022-11-14T06:48:40;9.40;86.90
33865;DHT22;20159;51.072;13.526;2022-11-14T06:51:06;9.40;86.80
33865;DHT22;20159;51.072;13.526;2022-11-14T06:53:33;9.40;86.80
33865;DHT22;20159;51.072;13.526;2022-11-14T06:56:07;9.50;86.80
33865;DHT22;20159;51.072;13.526;2022-11-14T06:58:37;9.50;86.90
33865;DHT22;20159;51.072;13.526;2022-11-14T07:01:23;9.50;87.10
33865;DHT22;20159;51.072;13.526;2022-11-14T07:03:50;9.60;87.40
33865;DHT22;20159;51.072;13.526;2022-11-14T07:06:22;9.70;87.70
33865;DHT22;20159;51.072;13.526;2022-11-14T07:08:48;9.90;87.80
33865;DHT22;20159;51.072;13.526;2022-11-14T07:11:16;10.00;87.90
33865;DHT22;20159;51.072;13.526;2022-11-14T07:13:56;10.20;88.00
33865;DHT22;20159;51.072;13.526;2022-11-14T07:16:29;10.40;88.30
33865;DHT22;20159;51.072;13.526;2022-11-14T07:18:57;10.70;88.00
33865;DHT22;20159;51.072;13.526;2022-11-14T07:21:23;10.90;87.30
33865;DHT22;20159;51.072;13.526;2022-11-14T07:26:16;11.40;86.40
33865;DHT22;20159;51.072;13.526;2022-11-14T07:28:43;11.60;85.70
33865;DHT22;20159;51.072;13.526;2022-11-14T07:31:14;10.20;85.20
33865;DHT22;20159;51.072;13.526;2022-11-14T07:33:41;12.10;85.60
33865;DHT22;20159;51.072;13.526;2022-11-14T07:36:07;12.50;85.10
33865;DHT22;20159;51.072;13.526;2022-11-14T07:38:34;12.80;85.20
33865;DHT22;20159;51.072;13.526;2022-11-14T07:41:06;13.20;84.90
33865;DHT22;20159;51.072;13.526;2022-11-14T07:43:32;13.50;83.80
33865;DHT22;20159;51.072;13.526;2022-11-14T07:46:02;14.00;83.80
33865;DHT22;20159;51.072;13.526;2022-11-14T07:48:29;14.40;82.50
33865;DHT22;20159;51.072;13.526;2022-11-14T07:51:03;14.80;81.50
33865;DHT22;20159;51.072;13.526;2022-11-14T07:53:29;15.10;79.50
33865;DHT22;20159;51.072;13.526;2022-11-14T07:55:56;15.50;79.90
33865;DHT22;20159;51.072;13.526;2022-11-14T07:58:22;15.90;79.10
33865;DHT22;20159;51.072;13.526;2022-11-14T08:00:47;16.20;77.30
33865;DHT22;20159;51.072;13.526;2022-11-14T08:03:13;16.50;76.60
33865;DHT22;20159;51.072;13.526;2022-11-14T08:05:39;16.80;75.80
33865;DHT22;20159;51.072;13.526;2022-11-14T08:08:04;17.10;74.70
33865;DHT22;20159;51.072;13.526;2022-11-14T08:10:30;17.30;73.50
33865;DHT22;20159;51.072;13.526;2022-11-14T08:13:00;17.50;73.00
33865;DHT22;20159;51.072;13.526;2022-11-14T08:15:27;17.70;70.80
33865;DHT22;20159;51.072;13.526;2022-11-14T08:17:59;17.80;70.80
33865;DHT22;20159;51.072;13.526;2022-11-14T08:20:26;17.90;69.40
33865;DHT22;20159;51.072;13.526;2022-11-14T08:22:52;18.00;69.00
33865;DHT22;20159;51.072;13.526;2022-11-14T08:25:18;18.00;68.10
33865;DHT22;20159;51.072;13.526;2022-11-14T08:27:44;18.00;67.50
33865;DHT22;20159;51.072;13.526;2022-11-14T08:30:10;18.00;67.30
33865;DHT22;20159;51.072;13.526;2022-11-14T08:32:35;18.10;67.20
33865;DHT22;20159;51.072;13.526;2022-11-14T08:35:01;18.20;67.00
33865;DHT22;20159;51.072;13.526;2022-11-14T08:37:26;18.30;67.10
33865;DHT22;20159;51.072;13.526;2022-11-14T08:39:52;18.30;66.60
33865;DHT22;20159;51.072;13.526;2022-11-14T08:42:18;20.20;67.60
33865;DHT22;20159;51.072;13.526;2022-11-14T08:44:43;18.50;66.10
33865;DHT22;20159;51.072;13.526;2022-11-14T08:47:09;18.70;65.50
33865;DHT22;20159;51.072;13.526;2022-11-14T08:49:34;18.80;65.50
33865;DHT22;20159;51.072;13.526;2022-11-14T08:52:00;18.80;65.10
33865;DHT22;20159;51.072;13.526;2022-11-14T08:54:25;18.90;64.50
33865;DHT22;20159;51.072;13.526;2022-11-14T08:56:51;19.00;64.50
33865;DHT22;20159;51.072;13.526;2022-11-14T08:59:17;19.00;64.20
33865;DHT22;20159;51.072;13.526;2022-11-14T09:01:42;19.10;64.20
33865;DHT22;20159;51.072;13.526;2022-11-14T09:04:08;19.10;64.30
33865;DHT22;20159;51.072;13.526;2022-11-14T09:06:33;19.20;63.50
33865;DHT22;20159;51.072;13.526;2022-11-14T09:08:59;19.30;63.30
33865;DHT22;20159;51.072;13.526;2022-11-14T09:11:25;19.40;63.00
33865;DHT22;20159;51.072;13.526;2022-11-14T09:13:50;19.40;62.60
33865;DHT22;20159;51.072;13.526;2022-11-14T09:16:16;19.50;61.40
33865;DHT22;20159;51.072;13.526;2022-11-14T09:18:41;19.60;61.50
33865;DHT22;20159;51.072;13.526;2022-11-14T09:21:07;19.60;60.60
33865;DHT22;20159;51.072;13.526;2022-11-14T09:23:34;19.60;60.40
33865;DHT22;20159;51.072;13.526;2022-11-14T09:26:07;19.60;60.40
33865;DHT22;20159;51.072;13.526;2022-11-14T09:28:33;19.60;59.10
33865;DHT22;20159;51.072;13.526;2022-11-14T09:31:03;19.60;59.50
33865;DHT22;20159;51.072;13.526;2022-11-14T09:33:29;19.50;58.50
33865;DHT22;20159;51.072;13.526;2022-11-14T09:35:56;19.50;59.00
33865;DHT22;20159;51.072;13.526;2022-11-14T09:38:22;19.40;59.50
33865;DHT22;20159;51.072;13.526;2022-11-14T09:46:03;19.30;58.50
33865;DHT22;20159;51.072;13.526;2022-11-14T09:48:36;19.20;58.60
33865;DHT22;20159;51.072;13.526;2022-11-14T09:51:22;19.10;58.40
33865;DHT22;20159;51.072;13.526;2022-11-14T09:56:25;19.00;58.30
33865;DHT22;20159;51.072;13.526;2022-11-14T09:58:52;18.90;59.20
33865;DHT22;20159;51.072;13.526;2022-11-14T10:01:35;19.00;59.70
33865;DHT22;20159;51.072;13.526;2022-11-14T10:04:19;19.10;59.30
33865;DHT22;20159;51.072;13.526;2022-11-14T10:07:01;19.10;58.50
33865;DHT22;20159;51.072;13.526;2022-11-14T10:12:26;19.20;58.00
33865;DHT22;20159;51.072;13.526;2022-11-14T10:20:49;19.00;57.30
33865;DHT22;20159;51.072;13.526;2022-11-14T10:26:13;18.60;56.80
33865;DHT22;20159;51.072;13.526;2022-11-14T10:28:54;18.40;57.20
33865;DHT22;20159;51.072;13.526;2022-11-14T10:31:29;18.10;57.50
33865;DHT22;20159;51.072;13.526;2022-11-14T10:39:40;17.50;59.30
33865;DHT22;20159;51.072;13.526;2022-11-14T10:42:33;17.40;59.60
33865;DHT22;20159;51.072;13.526;2022-11-14T10:45:24;17.40;60.10
33865;DHT22;20159;51.072;13.526;2022-11-14T10:47:55;17.30;60.00
33865;DHT22;20159;51.072;13.526;2022-11-14T10:50:26;17.30;60.00
33865;DHT22;20159;51.072;13.526;2022-11-14T10:52:57;17.20;59.80
33865;DHT22;20159;51.072;13.526;2022-11-14T10:55:25;19.40;60.70
33865;DHT22;20159;51.072;13.526;2022-11-14T10:57:50;17.00;59.90
33865;DHT22;20159;51.072;13.526;2022-11-14T11:00:19;16.90;60.00
33865;DHT22;20159;51.072;13.526;2022-11-14T11:02:48;16.70;60.20
33865;DHT22;20159;51.072;13.526;2022-11-14T11:05:15;16.60;60.70
33865;DHT22;20159;51.072;13.526;2022-11-14T11:07:46;16.60;60.90
33865;DHT22;20159;51.072;13.526;2022-11-14T11:10:31;16.60;61.30
33865;DHT22;20159;51.072;13.526;2022-11-14T11:13:36;16.60;61.80
33865;DHT22;20159;51.072;13.526;2022-11-14T11:16:04;16.70;61.90
33865;DHT22;20159;51.072;13.526;2022-11-14T11:18:34;16.70;62.00
33865;DHT22;20159;51.072;13.526;2022-11-14T11:21:02;16.80;61.60
33865;DHT22;20159;51.072;13.526;2022-11-14T11:23:28;16.80;61.80
33865;DHT22;20159;51.072;13.526;2022-11-14T11:26:01;16.90;61.60
33865;DHT22;20159;51.072;13.526;2022-11-14T11:28:35;16.80;61.10
33865;DHT22;20159;51.072;13.526;2022-11-14T11:31:03;16.80;61.10
33865;DHT22;20159;51.072;13.526;2022-11-14T11:33:34;16.90;60.90
33865;DHT22;20159;51.072;13.526;2022-11-14T11:39:57;16.80;60.80
33865;DHT22;20159;51.072;13.526;2022-11-14T11:42:36;16.70;61.00
33865;DHT22;20159;51.072;13.526;2022-11-14T11:45:09;16.70;61.00
33865;DHT22;20159;51.072;13.526;2022-11-14T11:47:39;16.60;61.00
33865;DHT22;20159;51.072;13.526;2022-11-14T11:50:13;16.50;61.20
33865;DHT22;20159;51.072;13.526;2022-11-14T11:55:43;16.40;61.00
33865;DHT22;20159;51.072;13.526;2022-11-14T11:58:23;16.40;61.50
33865;DHT22;20159;51.072;13.526;2022-11-14T12:00:53;16.30;61.70
33865;DHT22;20159;51.072;13.526;2022-11-14T12:03:20;16.30;61.60
33865;DHT22;20159;51.072;13.526;2022-11-14T12:06:14;16.20;61.70
33865;DHT22;20159;51.072;13.526;2022-11-14T12:11:23;16.30;62.00
33865;DHT22;20159;51.072;13.526;2022-11-14T12:22:40;16.50;62.40
33865;DHT22;20159;51.072;13.526;2022-11-14T12:28:29;16.70;62.50
33865;DHT22;20159;51.072;13.526;2022-11-14T12:30:58;16.90;62.10
33865;DHT22;20159;51.072;13.526;2022-11-14T12:36:02;17.10;62.10
33865;DHT22;20159;51.072;13.526;2022-11-14T12:38:48;17.30;62.10
33865;DHT22;20159;51.072;13.526;2022-11-14T12:41:23;17.50;61.80
33865;DHT22;20159;51.072;13.526;2022-11-14T12:43:50;17.60;62.60
33865;DHT22;20159;51.072;13.526;2022-11-14T12:46:15;17.80;61.60
33865;DHT22;20159;51.072;13.526;2022-11-14T12:48:43;17.90;61.20
33865;DHT22;20159;51.072;13.526;2022-11-14T12:53:50;18.10;60.30
33865;DHT22;20159;51.072;13.526;2022-11-14T12:59:24;18.30;59.90
33865;DHT22;20159;51.072;13.526;2022-11-14T13:12:33;18.70;57.80
33865;DHT22;20159;51.072;13.526;2022-11-14T13:15:30;18.70;58.20
33865;DHT22;20159;51.072;13.526;2022-11-14T13:18:21;18.70;57.60
33865;DHT22;20159;51.072;13.526;2022-11-14T13:21:17;18.70;57.40
33865;DHT22;20159;51.072;13.526;2022-11-14T13:24:02;18.60;56.80
33865;DHT22;20159;51.072;13.526;2022-11-14T13:28:57;18.50;57.10
33865;DHT22;20159;51.072;13.526;2022-11-14T13:31:46;18.50;57.70
33865;DHT22;20159;51.072;13.526;2022-11-14T13:34:45;18.40;57.00
33865;DHT22;20159;51.072;13.526;2022-11-14T13:40:26;18.30;56.80
33865;DHT22;20159;51.072;13.526;2022-11-14T13:43:12;18.10;57.20
33865;DHT22;20159;51.072;13.526;2022-11-14T13:45:57;18.00;57.20
33865;DHT22;20159;51.072;13.526;2022-11-14T13:48:32;17.90;56.80
33865;DHT22;20159;51.072;13.526;2022-11-14T13:51:03;17.70;57.10
33865;DHT22;20159;51.072;13.526;2022-11-14T13:53:30;17.60;57.40
33865;DHT22;20159;51.072;13.526;2022-11-14T13:59:17;17.40;58.60
33865;DHT22;20159;51.072;13.526;2022-11-14T14:05:03;17.10;58.90
33865;DHT22;20159;51.072;13.526;2022-11-14T14:13:01;16.80;59.70
33865;DHT22;20159;51.072;13.526;2022-11-14T14:15:41;16.60;59.90
33865;DHT22;20159;51.072;13.526;2022-11-14T14:18:20;16.50;60.00
33865;DHT22;20159;51.072;13.526;2022-11-14T14:28:57;15.70;60.70
33865;DHT22;20159;51.072;13.526;2022-11-14T14:31:37;15.50;61.10
33865;DHT22;20159;51.072;13.526;2022-11-14T14:34:37;15.30;61.50
33865;DHT22;20159;51.072;13.526;2022-11-14T14:39:40;14.80;62.40
33865;DHT22;20159;51.072;13.526;2022-11-14T14:42:19;14.70;62.50
33865;DHT22;20159;51.072;13.526;2022-11-14T14:44:45;14.50;62.80
33865;DHT22;20159;51.072;13.526;2022-11-14T14:47:26;14.30;63.20
33865;DHT22;20159;51.072;13.526;2022-11-14T14:49:55;14.10;63.90
33865;DHT22;20159;51.072;13.526;2022-11-14T14:52:54;13.90;64.00
33865;DHT22;20159;51.072;13.526;2022-11-14T14:55:24;13.80;65.00
33865;DHT22;20159;51.072;13.526;2022-11-14T14:57:49;13.60;64.90
33865;DHT22;20159;51.072;13.526;2022-11-14T15:00:19;13.50;65.10
33865;DHT22;20159;51.072;13.526;2022-11-14T15:02:45;13.30;65.60
33865;DHT22;20159;51.072;13.526;2022-11-14T15:05:19;13.10;65.70
33865;DHT22;20159;51.072;13.526;2022-11-14T15:07:45;13.00;66.00
33865;DHT22;20159;51.072;13.526;2022-11-14T15:10:22;12.90;66.30
33865;DHT22;20159;51.072;13.526;2022-11-14T15:12:48;12.80;66.90
33865;DHT22;20159;51.072;13.526;2022-11-14T15:15:15;12.70;66.80
33865;DHT22;20159;51.072;13.526;2022-11-14T15:17:43;12.60;67.10
33865;DHT22;20159;51.072;13.526;2022-11-14T15:20:26;12.50;67.30
33865;DHT22;20159;51.072;13.526;2022-11-14T15:23:18;12.40;68.30
33865;DHT22;20159;51.072;13.526;2022-11-14T15:25:44;12.30;68.60
33865;DHT22;20159;51.072;13.526;2022-11-14T15:28:19;12.20;68.10
33865;DHT22;20159;51.072;13.526;2022-11-14T15:31:01;12.10;68.90
33865;DHT22;20159;51.072;13.526;2022-11-14T15:33:33;12.00;69.20
33865;DHT22;20159;51.072;13.526;2022-11-14T15:36:10;12.00;69.20
33865;DHT22;20159;51.072;13.526;2022-11-14T15:38:36;11.90;69.80
33865;DHT22;20159;51.072;13.526;2022-11-14T15:41:22;11.80;69.40
33865;DHT22;20159;51.072;13.526;2022-11-14T15:43:50;11.70;70.50
33865;DHT22;20159;51.072;13.526;2022-11-14T15:48:59;11.50;70.80
33865;DHT22;20159;51.072;13.526;2022-11-14T15:54:32;11.30;71.30
33865;DHT22;20159;51.072;13.526;2022-11-14T15:57:05;11.20;71.70
33865;DHT22;20159;51.072;13.526;2022-11-14T15:59:31;11.10;71.40
33865;DHT22;20159;51.072;13.526;2022-11-14T16:02:01;11.00;71.70
33865;DHT22;20159;51.072;13.526;2022-11-14T16:04:32;10.80;72.10
33865;DHT22;20159;51.072;13.526;2022-11-14T16:06:58;10.70;72.20
33865;DHT22;20159;51.072;13.526;2022-11-14T16:09:24;10.60;72.50
33865;DHT22;20159;51.072;13.526;2022-11-14T16:11:49;10.40;72.60
33865;DHT22;20159;51.072;13.526;2022-11-14T16:14:15;10.50;72.90
33865;DHT22;20159;51.072;13.526;2022-11-14T16:16:41;10.40;73.20
33865;DHT22;20159;51.072;13.526;2022-11-14T16:19:06;10.30;73.70
33865;DHT22;20159;51.072;13.526;2022-11-14T16:21:32;10.20;74.10
33865;DHT22;20159;51.072;13.526;2022-11-14T16:23:58;10.10;74.40
33865;DHT22;20159;51.072;13.526;2022-11-14T16:26:24;10.00;74.90
33865;DHT22;20159;51.072;13.526;2022-11-14T16:28:53;9.90;75.20
33865;DHT22;20159;51.072;13.526;2022-11-14T16:31:21;9.90;75.40
33865;DHT22;20159;51.072;13.526;2022-11-14T16:33:47;9.80;75.40
33865;DHT22;20159;51.072;13.526;2022-11-14T16:36:12;9.80;75.60
33865;DHT22;20159;51.072;13.526;2022-11-14T16:38:38;9.70;75.30
33865;DHT22;20159;51.072;13.526;2022-11-14T16:41:07;9.60;75.30
33865;DHT22;20159;51.072;13.526;2022-11-14T16:43:33;9.50;75.30
33865;DHT22;20159;51.072;13.526;2022-11-14T16:46:05;9.50;75.10
33865;DHT22;20159;51.072;13.526;2022-11-14T16:48:31;9.40;75.30
33865;DHT22;20159;51.072;13.526;2022-11-14T16:51:02;9.30;75.00
33865;DHT22;20159;51.072;13.526;2022-11-14T16:53:28;9.20;75.30
33865;DHT22;20159;51.072;13.526;2022-11-14T16:55:55;9.10;75.60
33865;DHT22;20159;51.072;13.526;2022-11-14T16:58:21;9.00;76.00
33865;DHT22;20159;51.072;13.526;2022-11-14T17:00:47;8.90;76.40
33865;DHT22;20159;51.072;13.526;2022-11-14T17:03:12;8.80;76.30
33865;DHT22;20159;51.072;13.526;2022-11-14T17:05:46;8.70;76.40
33865;DHT22;20159;51.072;13.526;2022-11-14T17:08:12;8.60;77.20
33865;DHT22;20159;51.072;13.526;2022-11-14T17:10:45;8.50;77.20
33865;DHT22;20159;51.072;13.526;2022-11-14T17:13:11;8.50;78.00
33865;DHT22;20159;51.072;13.526;2022-11-14T17:15:37;8.40;77.50
33865;DHT22;20159;51.072;13.526;2022-11-14T17:18:04;8.30;77.70
33865;DHT22;20159;51.072;13.526;2022-11-14T17:20:29;8.20;77.60
33865;DHT22;20159;51.072;13.526;2022-11-14T17:22:55;8.10;77.80